createdAt,value
2018-08-31T00:02:29.486Z,14.66
2018-08-31T00:06:11.012Z,14.62
2018-08-31T00:09:18.819Z,14.49
2018-08-31T00:12:00.673Z,14.40
2018-08-31T00:14:30.379Z,14.35
2018-08-31T00:17:00.197Z,14.37
2018-08-31T00:19:29.864Z,14.29
2018-08-31T00:21:59.567Z,14.22
2018-08-31T00:24:40.072Z,14.18
2018-08-31T00:27:21.055Z,14.18
2018-08-31T00:31:10.188Z,14.09
2018-08-31T00:33:58.453Z,14.00
2018-08-31T00:37:47.468Z,13.88
2018-08-31T00:42:36.038Z,13.90
2018-08-31T00:45:17.933Z,13.87
2018-08-31T00:47:47.642Z,13.75
2018-08-31T00:50:17.284Z,13.81
2018-08-31T00:52:47.077Z,13.80
2018-08-31T00:55:16.959Z,13.77
2018-08-31T00:57:46.672Z,13.79
2018-08-31T01:00:16.641Z,13.72
2018-08-31T01:02:46.747Z,13.71
2018-08-31T01:05:16.898Z,13.66
2018-08-31T01:07:46.769Z,13.65
2018-08-31T01:10:18.242Z,13.65
2018-08-31T01:12:47.969Z,13.69
2018-08-31T01:15:17.592Z,13.61
2018-08-31T01:17:47.352Z,13.59
2018-08-31T01:20:17.074Z,13.61
2018-08-31T01:22:46.668Z,13.52
2018-08-31T01:25:16.585Z,13.55
2018-08-31T01:27:47.109Z,13.52
2018-08-31T01:30:16.917Z,13.44
2018-08-31T01:32:46.574Z,13.35
2018-08-31T01:35:16.336Z,13.39
2018-08-31T01:37:46.056Z,13.41
2018-08-31T01:40:16.072Z,13.32
2018-08-31T01:42:45.832Z,13.33
2018-08-31T01:45:15.592Z,13.27
2018-08-31T01:47:45.316Z,13.28
2018-08-31T01:50:15.122Z,13.10
2018-08-31T01:52:45.028Z,13.14
2018-08-31T01:55:14.887Z,13.21
2018-08-31T01:57:44.037Z,13.20
2018-08-31T02:00:12.904Z,13.18
2018-08-31T02:02:42.631Z,13.09
2018-08-31T02:05:11.372Z,12.99
2018-08-31T02:07:40.495Z,13.04
2018-08-31T02:10:09.598Z,12.97
2018-08-31T02:12:38.855Z,12.97
2018-08-31T02:15:08.120Z,12.92
2018-08-31T02:17:37.403Z,12.92
2018-08-31T02:20:06.675Z,12.92
2018-08-31T02:22:36.199Z,12.87
2018-08-31T02:25:05.505Z,12.89
2018-08-31T02:27:37.471Z,12.79
2018-08-31T02:30:06.983Z,12.72
2018-08-31T02:32:36.072Z,12.75
2018-08-31T02:35:05.147Z,12.81
2018-08-31T02:37:34.160Z,12.71
2018-08-31T02:40:03.557Z,12.75
2018-08-31T02:42:32.428Z,12.74
2018-08-31T02:45:01.541Z,12.63
2018-08-31T02:47:37.198Z,12.70
2018-08-31T02:50:06.075Z,12.64
2018-08-31T02:52:35.178Z,12.59
2018-08-31T02:55:04.270Z,12.49
2018-08-31T02:57:33.444Z,12.57
2018-08-31T03:00:02.459Z,12.51
2018-08-31T03:02:31.520Z,12.49
2018-08-31T03:05:00.661Z,12.41
2018-08-31T03:07:29.956Z,12.40
2018-08-31T03:09:59.040Z,12.40
2018-08-31T03:12:28.209Z,12.43
2018-08-31T03:14:57.015Z,12.43
2018-08-31T03:17:25.934Z,12.44
2018-08-31T03:19:54.818Z,12.26
2018-08-31T03:22:23.705Z,12.35
2018-08-31T03:24:52.600Z,12.28
2018-08-31T03:27:21.463Z,12.22
2018-08-31T03:29:50.797Z,12.22
2018-08-31T03:32:19.688Z,12.23
2018-08-31T03:34:48.571Z,12.21
2018-08-31T03:37:17.518Z,12.16
2018-08-31T03:39:46.350Z,12.13
2018-08-31T03:42:15.445Z,12.06
2018-08-31T03:44:44.542Z,12.09
2018-08-31T03:47:13.432Z,12.10
2018-08-31T03:49:42.308Z,12.03
2018-08-31T03:52:11.216Z,12.09
2018-08-31T03:54:40.176Z,11.93
2018-08-31T03:57:09.585Z,12.01
2018-08-31T03:59:38.487Z,11.95
